Time;durP1;ratioP1;P1;durP2;ratioP2;P2;SDS_P1;SDS_P2;PMS_P1;PMS_P2;Temp;Humidity;BMP_temperature;BMP_pressure;BME280_temperature;BME280_humidity;BME280_pressure;Samples;Min_cycle;Max_cycle;Signal;HPM_P1;HPM_P2
2023/06/02 00:00:39;;;;;;;5.55;4.50;;;;;;;;;;2025009;29;20093;-89
2023/06/02 00:01:40;;;;;;;6.55;5.05;;;;;;;;;;2032944;29;20507;-89
2023/06/02 00:02:41;;;;;;;7.75;4.97;;;;;;;;;;2025011;29;20056;-89
2023/06/02 00:03:42;;;;;;;6.18;4.95;;;;;;;;;;2024844;29;20079;-89
2023/06/02 00:04:44;;;;;;;5.90;5.07;;;;;;;;;;2024768;29;20537;-89
2023/06/02 00:05:46;;;;;;;6.72;4.85;;;;;;;;;;2024892;29;20016;-89
2023/06/02 00:06:47;;;;;;;6.50;4.50;;;;;;;;;;2032725;29;20609;-88
2023/06/02 00:07:48;;;;;;;5.63;4.53;;;;;;;;;;2032544;29;20143;-88
2023/06/02 00:08:48;;;;;;;6.13;4.82;;;;;;;;;;2024750;29;20522;-89
2023/06/02 00:09:49;;;;;;;5.95;4.47;;;;;;;;;;2025020;29;20024;-89
2023/06/02 00:10:50;;;;;;;6.30;4.90;;;;;;;;;;2032773;29;20111;-89
2023/06/02 00:11:50;;;;;;;6.10;4.57;;;;;;;;;;2032607;29;20023;-89
2023/06/02 00:12:50;;;;;;;9.00;4.90;;;;;;;;;;2032619;29;20032;-89
2023/06/02 00:13:51;;;;;;;7.20;4.90;;;;;;;;;;2032640;29;20107;-90
2023/06/02 00:14:52;;;;;;;6.45;4.55;;;;;;;;;;2024994;29;20517;-89
2023/06/02 00:15:53;;;;;;;6.72;5.22;;;;;;;;;;2024710;29;20048;-89
2023/06/02 00:16:55;;;;;;;7.32;4.65;;;;;;;;;;2024756;29;20051;-89
2023/06/02 00:17:56;;;;;;;5.82;4.53;;;;;;;;;;2032786;29;20420;-89
2023/06/02 00:18:56;;;;;;;8.20;4.93;;;;;;;;;;2032745;29;20024;-89
2023/06/02 00:20:00;;;;;;;7.05;4.72;;;;;;;;;;2024676;29;20033;-89
2023/06/02 00:21:01;;;;;;;7.72;4.72;;;;;;;;;;2025086;29;20029;-89
2023/06/02 00:22:05;;;;;;;6.18;4.80;;;;;;;;;;2024782;29;20044;-89
2023/06/02 00:23:08;;;;;;;5.60;4.60;;;;;;;;;;2033043;29;20043;-89
2023/06/02 00:24:09;;;;;;;5.97;5.03;;;;;;;;;;2041291;29;20037;-89
2023/06/02 00:25:09;;;;;;;7.78;5.10;;;;;;;;;;2041520;29;20059;-89
2023/06/02 00:26:10;;;;;;;6.13;4.40;;;;;;;;;;2041542;29;20132;-89
2023/06/02 00:27:12;;;;;;;9.07;5.10;;;;;;;;;;2041462;29;20110;-89
2023/06/02 00:28:12;;;;;;;7.38;4.57;;;;;;;;;;2032156;29;20051;-90
2023/06/02 00:29:13;;;;;;;5.68;4.63;;;;;;;;;;2032674;29;20429;-89
2023/06/02 00:30:13;;;;;;;6.45;4.45;;;;;;;;;;1684979;29;10229582;-89
2023/06/02 00:31:14;;;;;;;9.32;5.65;;;;;;;;;;2032797;29;20032;-90
2023/06/02 00:32:14;;;;;;;8.05;4.70;;;;;;;;;;2038539;29;20475;-89
2023/06/02 00:33:15;;;;;;;8.23;5.15;;;;;;;;;;2025033;29;20037;-89
2023/06/02 00:34:16;;;;;;;7.35;4.93;;;;;;;;;;2032838;29;20088;-89
2023/06/02 00:35:17;;;;;;;6.93;4.72;;;;;;;;;;2041480;29;20042;-89
2023/06/02 00:36:17;;;;;;;6.95;4.95;;;;;;;;;;2041247;29;20032;-89
2023/06/02 00:37:18;;;;;;;8.43;4.85;;;;;;;;;;2032763;29;20024;-89
2023/06/02 00:38:18;;;;;;;8.48;5.00;;;;;;;;;;2032730;29;20157;-89
2023/06/02 00:39:19;;;;;;;8.30;5.30;;;;;;;;;;2032553;29;20517;-89
2023/06/02 00:40:20;;;;;;;7.50;4.93;;;;;;;;;;2024620;29;20031;-89
2023/06/02 00:41:20;;;;;;;7.82;5.57;;;;;;;;;;2024642;29;20025;-88
2023/06/02 00:42:22;;;;;;;8.63;4.57;;;;;;;;;;2024455;29;20064;-89
2023/06/02 00:43:22;;;;;;;8.27;4.77;;;;;;;;;;1677846;29;10265895;-89
2023/06/02 00:44:23;;;;;;;7.53;4.95;;;;;;;;;;2032387;29;20081;-89
2023/06/02 00:45:23;;;;;;;6.20;4.57;;;;;;;;;;2032524;29;20139;-89
2023/06/02 00:46:23;;;;;;;6.18;4.85;;;;;;;;;;2024592;29;20036;-89
2023/06/02 00:47:24;;;;;;;6.25;4.60;;;;;;;;;;2032569;29;20071;-89
2023/06/02 00:48:26;;;;;;;6.97;5.05;;;;;;;;;;2040849;29;20039;-89
2023/06/02 00:49:26;;;;;;;8.43;5.18;;;;;;;;;;2040947;29;20047;-89
2023/06/02 00:50:27;;;;;;;8.73;5.60;;;;;;;;;;2032239;29;20071;-89
2023/06/02 00:51:28;;;;;;;7.25;4.97;;;;;;;;;;1679924;29;10194216;-89
2023/06/02 00:52:30;;;;;;;7.85;4.90;;;;;;;;;;2032462;29;20494;-89
2023/06/02 00:53:31;;;;;;;8.05;5.45;;;;;;;;;;2032207;29;20035;-90
2023/06/02 00:54:32;;;;;;;6.13;4.72;;;;;;;;;;2024660;29;20024;-89
2023/06/02 00:55:32;;;;;;;8.40;4.94;;;;;;;;;;1680007;29;10384886;-89
2023/06/02 00:56:33;;;;;;;9.10;5.60;;;;;;;;;;2024470;29;20406;-89
2023/06/02 00:57:34;;;;;;;7.35;4.90;;;;;;;;;;2032308;29;20039;-89
2023/06/02 00:58:37;;;;;;;7.72;4.85;;;;;;;;;;2032208;29;20036;-88
2023/06/02 00:59:38;;;;;;;7.22;4.82;;;;;;;;;;2024722;29;20028;-90
2023/06/02 01:00:41;;;;;;;7.95;5.28;;;;;;;;;;2032285;29;20059;-90
2023/06/02 01:01:44;;;;;;;12.68;5.32;;;;;;;;;;2031580;29;20542;-89
2023/06/02 01:02:45;;;;;;;7.85;5.53;;;;;;;;;;2032475;29;20513;-90
2023/06/02 01:03:49;;;;;;;6.57;4.68;;;;;;;;;;2040568;29;20023;-90
2023/06/02 01:04:51;;;;;;;6.38;5.10;;;;;;;;;;2040515;29;20157;-89
2023/06/02 01:05:55;;;;;;;7.88;4.70;;;;;;;;;;2032094;29;20111;-89
2023/06/02 01:07:00;;;;;;;7.10;5.57;;;;;;;;;;2032675;29;20396;-89
2023/06/02 01:08:03;;;;;;;8.02;5.18;;;;;;;;;;2040768;29;20016;-89
2023/06/02 01:09:06;;;;;;;8.05;5.10;;;;;;;;;;2032091;29;20526;-89
2023/06/02 01:10:08;;;;;;;8.73;5.50;;;;;;;;;;2032470;29;20023;-89
2023/06/02 01:11:09;;;;;;;8.77;5.20;;;;;;;;;;2040516;29;20028;-90
2023/06/02 01:12:10;;;;;;;6.30;4.90;;;;;;;;;;2031885;29;20035;-89
2023/06/02 01:13:11;;;;;;;7.72;4.95;;;;;;;;;;2032121;29;20028;-90
2023/06/02 01:14:12;;;;;;;7.03;5.38;;;;;;;;;;2032102;29;20112;-90
2023/06/02 01:15:13;;;;;;;6.40;4.78;;;;;;;;;;2024225;29;20033;-90
2023/06/02 01:16:13;;;;;;;8.05;5.10;;;;;;;;;;2024171;29;20052;-89
2023/06/02 01:17:19;;;;;;;6.60;4.88;;;;;;;;;;1678342;29;10420653;-90
2023/06/02 01:18:25;;;;;;;7.65;5.45;;;;;;;;;;2032680;29;20028;-90
2023/06/02 01:19:26;;;;;;;7.80;5.40;;;;;;;;;;2032057;29;20058;-89
2023/06/02 01:20:28;;;;;;;8.63;5.20;;;;;;;;;;2032047;29;20373;-90
2023/06/02 01:21:31;;;;;;;11.27;6.22;;;;;;;;;;2040542;29;20019;-89
2023/06/02 01:22:38;;;;;;;6.95;4.90;;;;;;;;;;2034334;29;20141;-88
2023/06/02 01:23:47;;;;;;;7.85;5.30;;;;;;;;;;2035506;29;20040;-89
2023/06/02 01:24:48;;;;;;;8.82;4.72;;;;;;;;;;2040736;29;20012;-90
2023/06/02 01:25:52;;;;;;;8.85;5.00;;;;;;;;;;2031911;29;20523;-89
2023/06/02 01:26:53;;;;;;;6.85;4.95;;;;;;;;;;2032646;29;20060;-90
2023/06/02 01:27:57;;;;;;;9.95;5.20;;;;;;;;;;2032042;29;20103;-89
2023/06/02 01:28:58;;;;;;;6.95;4.95;;;;;;;;;;2032712;29;20024;-90
2023/06/02 01:29:58;;;;;;;7.50;5.05;;;;;;;;;;2040580;29;20500;-90
2023/06/02 01:31:15;;;;;;;9.50;5.53;;;;;;;;;;2031903;29;20028;-90
2023/06/02 01:32:35;;;;;;;9.68;5.22;;;;;;;;;;2026169;29;20114;-89
2023/06/02 01:33:45;;;;;;;6.65;4.35;;;;;;;;;;2034648;29;20032;-90
2023/06/02 01:34:56;;;;;;;8.65;4.90;;;;;;;;;;2031932;29;20020;-90
2023/06/02 01:36:00;;;;;;;8.93;4.40;;;;;;;;;;2033497;29;20020;-90
2023/06/02 01:37:03;;;;;;;5.30;4.68;;;;;;;;;;2040479;29;20411;-89
2023/06/02 01:38:03;;;;;;;6.32;5.18;;;;;;;;;;1686922;29;10169263;-90
2023/06/02 01:39:07;;;;;;;8.45;5.53;;;;;;;;;;2024460;29;20040;-89
2023/06/02 01:40:10;;;;;;;7.25;5.78;;;;;;;;;;2023904;29;20556;-89
2023/06/02 01:41:12;;;;;;;7.78;4.78;;;;;;;;;;2024331;29;20188;-90
2023/06/02 01:42:15;;;;;;;8.43;5.65;;;;;;;;;;2032113;29;20031;-90
2023/06/02 01:43:17;;;;;;;7.47;4.95;;;;;;;;;;1683569;29;10269390;-91
2023/06/02 01:44:19;;;;;;;7.55;5.20;;;;;;;;;;2024073;29;20077;-90
2023/06/02 01:45:21;;;;;;;7.18;5.70;;;;;;;;;;2031610;29;20520;-90
2023/06/02 01:46:24;;;;;;;5.85;4.95;;;;;;;;;;2031970;29;20580;-89
2023/06/02 01:47:24;;;;;;;6.07;4.95;;;;;;;;;;2031733;29;20504;-90
2023/06/02 01:48:28;;;;;;;6.63;4.90;;;;;;;;;;2031880;29;20039;-90
2023/06/02 01:49:29;;;;;;;8.88;5.00;;;;;;;;;;2032144;29;20032;-89
2023/06/02 01:50:30;;;;;;;10.55;5.68;;;;;;;;;;2040323;29;20027;-89
2023/06/02 01:51:30;;;;;;;7.47;4.95;;;;;;;;;;2031769;29;20477;-90
2023/06/02 01:52:31;;;;;;;10.27;5.40;;;;;;;;;;2023993;29;20029;-90
2023/06/02 01:53:32;;;;;;;8.85;5.40;;;;;;;;;;2033562;29;20114;-90
2023/06/02 01:54:32;;;;;;;9.38;6.07;;;;;;;;;;2039983;29;20052;-89
2023/06/02 01:55:33;;;;;;;8.50;5.47;;;;;;;;;;2041967;29;20032;-89
2023/06/02 01:56:34;;;;;;;10.35;5.43;;;;;;;;;;2049887;29;20007;-90
2023/06/02 01:57:34;;;;;;;18.95;6.82;;;;;;;;;;2048775;29;20032;-90
2023/06/02 01:58:36;;;;;;;9.43;5.57;;;;;;;;;;2040092;29;20028;-90
2023/06/02 01:59:36;;;;;;;10.73;5.47;;;;;;;;;;2035930;29;20050;-90
2023/06/02 02:00:36;;;;;;;10.20;5.97;;;;;;;;;;2041795;29;20035;-90
2023/06/02 02:01:40;;;;;;;10.95;5.40;;;;;;;;;;2042367;29;20032;-90
2023/06/02 02:02:40;;;;;;;8.27;6.45;;;;;;;;;;2040775;29;20456;-89
2023/06/02 02:03:41;;;;;;;7.05;5.18;;;;;;;;;;2031926;29;20032;-90
2023/06/02 02:04:41;;;;;;;7.68;5.22;;;;;;;;;;2032314;29;20024;-89
2023/06/02 02:05:42;;;;;;;8.52;5.50;;;;;;;;;;2032759;29;20056;-91
2023/06/02 02:06:45;;;;;;;6.95;5.63;;;;;;;;;;2032065;29;20071;-89
2023/06/02 02:07:47;;;;;;;7.25;5.45;;;;;;;;;;2026667;29;20091;-90
2023/06/02 02:08:49;;;;;;;7.40;5.25;;;;;;;;;;2031866;29;20020;-89
2023/06/02 02:09:49;;;;;;;6.20;5.28;;;;;;;;;;2029682;29;20214;-89
2023/06/02 02:10:50;;;;;;;8.35;5.65;;;;;;;;;;2040424;29;20249;-90
2023/06/02 02:11:50;;;;;;;6.80;5.00;;;;;;;;;;2041023;29;20024;-89
2023/06/02 02:12:51;;;;;;;7.60;4.70;;;;;;;;;;2041294;29;20107;-90
2023/06/02 02:13:52;;;;;;;6.82;5.53;;;;;;;;;;2045877;29;20388;-88
2023/06/02 02:14:56;;;;;;;8.73;5.75;;;;;;;;;;2048026;29;20031;-89
2023/06/02 02:15:56;;;;;;;8.23;5.03;;;;;;;;;;2041456;29;20028;-90
2023/06/02 02:17:00;;;;;;;6.32;4.53;;;;;;;;;;2040906;29;20507;-89
2023/06/02 02:18:00;;;;;;;7.45;5.28;;;;;;;;;;2039073;29;20019;-89
2023/06/02 02:19:01;;;;;;;12.48;5.93;;;;;;;;;;2032555;29;20155;-89
2023/06/02 02:20:05;;;;;;;5.05;4.38;;;;;;;;;;2041075;29;20046;-89
2023/06/02 02:21:05;;;;;;;8.10;4.88;;;;;;;;;;2032196;29;20124;-89
2023/06/02 02:22:05;;;;;;;10.07;5.82;;;;;;;;;;2032629;29;20067;-89
2023/06/02 02:23:06;;;;;;;12.68;5.95;;;;;;;;;;2040832;29;20028;-90
2023/06/02 02:24:07;;;;;;;7.80;5.13;;;;;;;;;;2040415;29;20024;-89
2023/06/02 02:25:07;;;;;;;8.57;5.53;;;;;;;;;;2040318;29;20024;-89
2023/06/02 02:26:08;;;;;;;8.57;5.50;;;;;;;;;;2040156;29;20027;-89
2023/06/02 02:27:08;;;;;;;10.77;5.47;;;;;;;;;;2039599;29;20590;-89
2023/06/02 02:28:09;;;;;;;7.50;4.97;;;;;;;;;;2031773;29;20032;-89
2023/06/02 02:29:09;;;;;;;8.40;5.07;;;;;;;;;;2023927;29;20525;-89
2023/06/02 02:30:10;;;;;;;7.15;4.70;;;;;;;;;;2031992;29;20067;-89
2023/06/02 02:31:11;;;;;;;6.97;5.30;;;;;;;;;;2031694;29;20028;-89
2023/06/02 02:32:11;;;;;;;7.60;4.75;;;;;;;;;;2032029;29;20115;-90
2023/06/02 02:33:12;;;;;;;7.45;4.82;;;;;;;;;;2040314;29;20481;-89
2023/06/02 02:34:12;;;;;;;7.53;5.18;;;;;;;;;;2031716;29;20147;-89
2023/06/02 02:35:13;;;;;;;6.15;4.75;;;;;;;;;;2023790;29;20477;-89
2023/06/02 02:36:16;;;;;;;6.80;5.28;;;;;;;;;;2031586;29;20079;-90
2023/06/02 02:37:17;;;;;;;8.13;5.30;;;;;;;;;;2031624;29;20091;-90
2023/06/02 02:38:19;;;;;;;9.77;5.07;;;;;;;;;;2031732;29;20028;-90
2023/06/02 02:39:20;;;;;;;7.45;5.00;;;;;;;;;;2040062;29;20035;-90
2023/06/02 02:40:21;;;;;;;9.55;5.65;;;;;;;;;;2039959;29;20031;-88
2023/06/02 02:41:22;;;;;;;7.28;5.50;;;;;;;;;;2040021;29;20094;-89
2023/06/02 02:42:22;;;;;;;10.80;5.63;;;;;;;;;;2040105;29;20035;-90
2023/06/02 02:43:24;;;;;;;8.73;5.15;;;;;;;;;;2040061;29;20480;-89
2023/06/02 02:44:25;;;;;;;8.90;5.03;;;;;;;;;;2040217;29;20042;-88
2023/06/02 02:45:25;;;;;;;7.07;5.45;;;;;;;;;;2042066;28;20120;-89
2023/06/02 02:46:25;;;;;;;6.82;5.32;;;;;;;;;;2040083;29;20444;-88
2023/06/02 02:47:26;;;;;;;6.50;5.22;;;;;;;;;;2040271;29;20460;-88
2023/06/02 02:48:26;;;;;;;8.73;5.18;;;;;;;;;;2031594;29;20035;-90
2023/06/02 02:49:27;;;;;;;6.65;5.22;;;;;;;;;;2021442;29;20032;-89
2023/06/02 02:50:27;;;;;;;10.93;6.03;;;;;;;;;;2031657;29;20036;-89
2023/06/02 02:51:28;;;;;;;10.73;5.90;;;;;;;;;;2031244;29;20024;-89
2023/06/02 02:52:28;;;;;;;6.35;5.25;;;;;;;;;;2010791;29;20055;-90
2023/06/02 02:53:31;;;;;;;7.78;5.63;;;;;;;;;;2024378;29;20044;-89
2023/06/02 02:54:31;;;;;;;12.00;5.25;;;;;;;;;;2023566;29;20469;-89
2023/06/02 02:55:33;;;;;;;9.45;5.95;;;;;;;;;;2023705;29;20040;-89
2023/06/02 02:56:34;;;;;;;13.98;5.32;;;;;;;;;;2024403;29;20119;-89
2023/06/02 02:57:35;;;;;;;11.57;5.20;;;;;;;;;;2023626;29;20072;-90
2023/06/02 02:58:36;;;;;;;8.13;5.35;;;;;;;;;;2016065;29;20120;-90
2023/06/02 02:59:37;;;;;;;11.27;5.55;;;;;;;;;;2015856;29;20132;-89
2023/06/02 03:00:37;;;;;;;9.95;5.82;;;;;;;;;;2023605;29;20040;-88
2023/06/02 03:01:43;;;;;;;9.88;5.35;;;;;;;;;;2023789;29;20033;-89
2023/06/02 03:02:44;;;;;;;8.00;5.32;;;;;;;;;;2023770;29;20554;-90
2023/06/02 03:03:44;;;;;;;8.73;5.80;;;;;;;;;;2016233;29;20068;-89
2023/06/02 03:04:45;;;;;;;8.20;6.07;;;;;;;;;;2027298;29;20051;-88
2023/06/02 03:05:47;;;;;;;10.07;5.95;;;;;;;;;;2024633;29;20032;-89
2023/06/02 03:06:53;;;;;;;9.82;6.15;;;;;;;;;;2024731;29;20032;-89
2023/06/02 03:07:54;;;;;;;8.18;5.20;;;;;;;;;;2028828;29;20036;-90
2023/06/02 03:08:54;;;;;;;8.40;5.68;;;;;;;;;;2023945;29;20029;-90
2023/06/02 03:09:55;;;;;;;11.88;6.07;;;;;;;;;;2024493;29;20084;-90
2023/06/02 03:10:56;;;;;;;7.28;5.35;;;;;;;;;;2023988;29;20029;-90
2023/06/02 03:11:57;;;;;;;8.43;5.22;;;;;;;;;;2016400;29;20029;-90
2023/06/02 03:12:57;;;;;;;8.48;5.85;;;;;;;;;;2016502;29;20387;-90
2023/06/02 03:13:58;;;;;;;8.63;5.75;;;;;;;;;;2015773;29;20119;-90
2023/06/02 03:14:59;;;;;;;10.58;6.43;;;;;;;;;;1665377;29;10431184;-90
2023/06/02 03:16:00;;;;;;;11.95;7.85;;;;;;;;;;2015951;29;20033;-90
2023/06/02 03:17:01;;;;;;;10.63;7.53;;;;;;;;;;2016519;29;20021;-89
2023/06/02 03:18:03;;;;;;;12.43;8.35;;;;;;;;;;2025289;29;20115;-89
2023/06/02 03:19:03;;;;;;;13.05;8.48;;;;;;;;;;2025506;29;20112;-90
2023/06/02 03:20:08;;;;;;;18.20;8.90;;;;;;;;;;2023954;29;20028;-90
2023/06/02 03:21:09;;;;;;;13.75;8.75;;;;;;;;;;2016485;29;20029;-90
2023/06/02 03:22:10;;;;;;;11.90;7.63;;;;;;;;;;2016205;29;20081;-90
2023/06/02 03:23:10;;;;;;;10.45;7.53;;;;;;;;;;2016143;29;20112;-90
2023/06/02 03:24:14;;;;;;;9.80;6.60;;;;;;;;;;2015966;29;20119;-90
2023/06/02 03:25:14;;;;;;;9.48;6.18;;;;;;;;;;2016174;29;20489;-90
2023/06/02 03:26:16;;;;;;;10.25;6.90;;;;;;;;;;2016191;29;20040;-89
2023/06/02 03:27:18;;;;;;;8.55;5.97;;;;;;;;;;2008317;29;20048;-90
2023/06/02 03:28:18;;;;;;;7.65;5.88;;;;;;;;;;2016522;29;20489;-89
2023/06/02 03:29:19;;;;;;;10.25;6.22;;;;;;;;;;2024330;29;20066;-90
2023/06/02 03:30:20;;;;;;;8.32;5.70;;;;;;;;;;2024237;29;20025;-90
2023/06/02 03:31:24;;;;;;;8.13;5.88;;;;;;;;;;2024060;29;20162;-90
2023/06/02 03:32:24;;;;;;;7.28;5.72;;;;;;;;;;2024188;29;20103;-90
2023/06/02 03:33:25;;;;;;;7.10;5.72;;;;;;;;;;2026977;29;20079;-89
2023/06/02 03:34:25;;;;;;;7.18;5.60;;;;;;;;;;2024359;29;20111;-89
2023/06/02 03:35:25;;;;;;;7.95;5.70;;;;;;;;;;2023678;29;20160;-89
2023/06/02 03:36:26;;;;;;;7.97;4.85;;;;;;;;;;2023563;29;20112;-89
2023/06/02 03:37:26;;;;;;;9.65;5.72;;;;;;;;;;2024146;29;20346;-89
2023/06/02 03:38:27;;;;;;;6.28;4.90;;;;;;;;;;2023683;29;20440;-89
2023/06/02 03:39:27;;;;;;;9.88;6.75;;;;;;;;;;2023470;29;20033;-89
2023/06/02 03:40:27;;;;;;;7.85;5.82;;;;;;;;;;2023387;29;20200;-90
2023/06/02 03:41:28;;;;;;;8.63;5.88;;;;;;;;;;2015806;29;20052;-89
2023/06/02 03:42:28;;;;;;;12.05;5.85;;;;;;;;;;2023522;29;20489;-90
2023/06/02 03:43:28;;;;;;;8.13;5.50;;;;;;;;;;1664477;29;10438626;-90
2023/06/02 03:44:29;;;;;;;6.63;5.93;;;;;;;;;;2023593;29;20059;-91
2023/06/02 03:45:30;;;;;;;8.23;5.55;;;;;;;;;;2023719;29;20036;-90
2023/06/02 03:46:31;;;;;;;11.10;5.82;;;;;;;;;;2023646;29;20141;-90
2023/06/02 03:47:31;;;;;;;9.55;5.88;;;;;;;;;;2023649;29;20552;-90
2023/06/02 03:48:32;;;;;;;9.00;5.85;;;;;;;;;;2023461;29;20442;-90
2023/06/02 03:49:32;;;;;;;9.70;6.05;;;;;;;;;;2024183;29;20092;-90
2023/06/02 03:50:32;;;;;;;10.48;5.95;;;;;;;;;;2024005;29;20425;-90
2023/06/02 03:51:33;;;;;;;8.90;5.78;;;;;;;;;;2023411;29;20228;-90
2023/06/02 03:52:33;;;;;;;9.65;6.05;;;;;;;;;;2023389;29;20115;-89
2023/06/02 03:53:34;;;;;;;9.48;6.07;;;;;;;;;;2023436;29;20037;-89
2023/06/02 03:54:34;;;;;;;7.85;5.65;;;;;;;;;;2023377;29;20033;-90
2023/06/02 03:55:35;;;;;;;7.88;5.80;;;;;;;;;;2025543;29;20056;-91
2023/06/02 03:56:35;;;;;;;8.98;6.03;;;;;;;;;;2025539;29;20115;-90
2023/06/02 03:57:36;;;;;;;10.18;6.13;;;;;;;;;;2023483;29;20036;-90
2023/06/02 03:58:36;;;;;;;9.23;5.18;;;;;;;;;;2023652;29;20032;-89
2023/06/02 03:59:37;;;;;;;8.90;5.75;;;;;;;;;;2024124;29;20520;-90
2023/06/02 04:00:37;;;;;;;7.72;6.03;;;;;;;;;;2023453;29;20033;-90
2023/06/02 04:01:39;;;;;;;8.10;5.55;;;;;;;;;;2023680;29;20156;-90
2023/06/02 04:02:39;;;;;;;7.85;6.00;;;;;;;;;;2023954;29;20060;-89
2023/06/02 04:03:41;;;;;;;6.38;5.25;;;;;;;;;;2017295;29;20348;-90
2023/06/02 04:04:42;;;;;;;8.02;5.55;;;;;;;;;;2017614;29;20348;-90
2023/06/02 04:05:42;;;;;;;9.07;5.53;;;;;;;;;;2024994;29;20457;-89
2023/06/02 04:06:43;;;;;;;10.70;7.47;;;;;;;;;;2025624;29;20041;-88
2023/06/02 04:07:44;;;;;;;9.88;6.35;;;;;;;;;;2025534;29;20297;-89
2023/06/02 04:08:48;;;;;;;11.05;6.07;;;;;;;;;;2025778;29;20534;-90
2023/06/02 04:09:48;;;;;;;9.55;6.90;;;;;;;;;;2025660;29;20028;-90
2023/06/02 04:10:48;;;;;;;11.35;6.68;;;;;;;;;;2025195;29;20060;-89
2023/06/02 04:11:49;;;;;;;9.75;6.88;;;;;;;;;;2025118;29;20059;-88
2023/06/02 04:12:49;;;;;;;10.52;6.55;;;;;;;;;;2024886;29;20477;-90
2023/06/02 04:13:50;;;;;;;9.13;6.32;;;;;;;;;;2017053;29;20077;-90
2023/06/02 04:14:50;;;;;;;9.82;5.93;;;;;;;;;;2024270;29;20112;-89
2023/06/02 04:15:51;;;;;;;9.32;6.20;;;;;;;;;;2032666;29;20086;-90
2023/06/02 04:16:52;;;;;;;11.73;5.57;;;;;;;;;;2024622;29;20158;-87
2023/06/02 04:17:52;;;;;;;7.88;5.68;;;;;;;;;;2017010;29;20025;-90
2023/06/02 04:18:53;;;;;;;8.57;5.82;;;;;;;;;;2016850;29;20029;-90
2023/06/02 04:19:53;;;;;;;12.15;5.85;;;;;;;;;;2024952;29;20039;-90
2023/06/02 04:20:54;;;;;;;10.18;6.35;;;;;;;;;;2024721;29;20028;-90
2023/06/02 04:21:54;;;;;;;11.10;6.50;;;;;;;;;;2017179;29;20056;-90
2023/06/02 04:22:54;;;;;;;11.18;5.22;;;;;;;;;;2017026;29;20032;-89
2023/06/02 04:23:55;;;;;;;7.30;5.80;;;;;;;;;;2024683;29;20414;-89
2023/06/02 04:24:55;;;;;;;7.57;5.55;;;;;;;;;;2024794;29;20024;-89
2023/06/02 04:25:56;;;;;;;10.23;5.93;;;;;;;;;;2029049;29;20029;-89
2023/06/02 04:26:56;;;;;;;12.30;5.63;;;;;;;;;;2034905;29;20104;-89
2023/06/02 04:27:57;;;;;;;8.23;5.88;;;;;;;;;;2034800;29;20032;-88
2023/06/02 04:28:57;;;;;;;7.57;5.20;;;;;;;;;;2034701;29;20012;-90
2023/06/02 04:29:58;;;;;;;8.05;5.05;;;;;;;;;;2025369;29;20045;-89
2023/06/02 04:31:01;;;;;;;5.90;4.60;;;;;;;;;;2024084;29;20024;-90
2023/06/02 04:32:02;;;;;;;7.28;5.25;;;;;;;;;;2026419;29;20059;-89
2023/06/02 04:33:03;;;;;;;8.13;5.47;;;;;;;;;;2025834;29;20048;-90
2023/06/02 04:34:03;;;;;;;10.27;4.53;;;;;;;;;;2025099;29;20040;-91
2023/06/02 04:35:04;;;;;;;5.25;4.47;;;;;;;;;;2025451;29;20032;-91
2023/06/02 04:36:05;;;;;;;10.23;5.32;;;;;;;;;;2025308;29;20153;-88
2023/06/02 04:37:07;;;;;;;6.45;4.10;;;;;;;;;;2025584;29;20528;-91
2023/06/02 04:38:09;;;;;;;8.50;4.30;;;;;;;;;;2024381;29;20060;-90
2023/06/02 04:39:09;;;;;;;5.50;4.20;;;;;;;;;;1672496;29;10424033;-90
2023/06/02 04:40:10;;;;;;;7.88;4.25;;;;;;;;;;2025196;29;20084;-89
2023/06/02 04:41:11;;;;;;;7.97;4.15;;;;;;;;;;2024539;29;20032;-90
2023/06/02 04:42:15;;;;;;;7.28;4.35;;;;;;;;;;2024448;29;20033;-89
2023/06/02 04:43:16;;;;;;;5.68;3.60;;;;;;;;;;2025094;29;20040;-90
2023/06/02 04:44:16;;;;;;;5.90;3.85;;;;;;;;;;2025238;29;20045;-90
2023/06/02 04:45:20;;;;;;;6.28;3.78;;;;;;;;;;2030023;29;20096;-90
2023/06/02 04:46:22;;;;;;;5.05;4.00;;;;;;;;;;2032709;29;20084;-89
2023/06/02 04:47:23;;;;;;;6.60;4.03;;;;;;;;;;2032590;29;20048;-89
2023/06/02 04:48:23;;;;;;;7.70;3.85;;;;;;;;;;2027265;29;20030;-89
2023/06/02 04:49:23;;;;;;;7.18;4.40;;;;;;;;;;2035238;29;20017;-89
2023/06/02 04:50:25;;;;;;;7.15;4.03;;;;;;;;;;2034712;29;20055;-89
2023/06/02 04:51:27;;;;;;;7.72;4.35;;;;;;;;;;2028350;29;20036;-89
2023/06/02 04:52:27;;;;;;;6.43;3.55;;;;;;;;;;2024665;29;20432;-90
2023/06/02 04:53:28;;;;;;;6.82;4.40;;;;;;;;;;2024365;29;20028;-89
2023/06/02 04:54:29;;;;;;;6.20;4.20;;;;;;;;;;2016641;29;20089;-90
2023/06/02 04:55:29;;;;;;;7.93;3.90;;;;;;;;;;2024356;29;20029;-90
2023/06/02 04:56:31;;;;;;;6.57;4.50;;;;;;;;;;2024504;29;20115;-89
2023/06/02 04:57:31;;;;;;;7.63;4.43;;;;;;;;;;2024327;29;20028;-90
2023/06/02 04:58:32;;;;;;;8.65;3.92;;;;;;;;;;2024295;29;20116;-89
2023/06/02 04:59:38;;;;;;;7.47;4.13;;;;;;;;;;2016784;29;20497;-90
2023/06/02 05:00:38;;;;;;;5.35;4.03;;;;;;;;;;2024262;29;20131;-88
2023/06/02 05:01:39;;;;;;;8.85;4.22;;;;;;;;;;2024463;29;20039;-90
2023/06/02 05:02:39;;;;;;;8.18;4.45;;;;;;;;;;2024879;29;20028;-90
2023/06/02 05:03:40;;;;;;;5.57;3.67;;;;;;;;;;2029692;29;20043;-90
2023/06/02 05:04:40;;;;;;;6.60;4.38;;;;;;;;;;2024273;29;20153;-90
2023/06/02 05:05:41;;;;;;;7.63;3.88;;;;;;;;;;2024090;29;20520;-91
2023/06/02 05:06:41;;;;;;;5.97;4.45;;;;;;;;;;2024340;29;20101;-90
2023/06/02 05:07:42;;;;;;;8.65;4.20;;;;;;;;;;2024189;29;20096;-90
2023/06/02 05:08:42;;;;;;;6.53;4.15;;;;;;;;;;2016592;29;20430;-90
2023/06/02 05:09:42;;;;;;;7.90;4.28;;;;;;;;;;2024368;29;20036;-90
2023/06/02 05:10:43;;;;;;;7.07;4.15;;;;;;;;;;2024203;29;20120;-90
2023/06/02 05:11:43;;;;;;;4.57;3.90;;;;;;;;;;2016401;29;20116;-89
2023/06/02 05:12:44;;;;;;;6.00;4.28;;;;;;;;;;2024279;29;20072;-90
2023/06/02 05:13:45;;;;;;;8.32;4.53;;;;;;;;;;2032870;29;20416;-90
2023/06/02 05:14:45;;;;;;;7.75;4.03;;;;;;;;;;2033120;29;20020;-90
2023/06/02 05:15:46;;;;;;;4.93;3.92;;;;;;;;;;2024274;29;20040;-90
2023/06/02 05:16:46;;;;;;;7.70;4.50;;;;;;;;;;2017149;29;20040;-89
2023/06/02 05:17:47;;;;;;;11.25;4.40;;;;;;;;;;2024822;29;20060;-90
2023/06/02 05:18:47;;;;;;;4.88;3.83;;;;;;;;;;2033188;29;20068;-90
2023/06/02 05:19:48;;;;;;;6.50;4.20;;;;;;;;;;2032710;29;20092;-90
2023/06/02 05:20:50;;;;;;;5.65;4.30;;;;;;;;;;2024008;29;20031;-89
2023/06/02 05:21:51;;;;;;;7.80;4.68;;;;;;;;;;2024067;29;20028;-90
2023/06/02 05:22:51;;;;;;;5.70;3.97;;;;;;;;;;2016450;29;20413;-90
2023/06/02 05:23:52;;;;;;;5.88;4.10;;;;;;;;;;2023930;29;20036;-90
2023/06/02 05:24:52;;;;;;;5.90;4.30;;;;;;;;;;2016392;29;20409;-90
2023/06/02 05:25:53;;;;;;;7.40;4.10;;;;;;;;;;2024117;29;20026;-90
2023/06/02 05:26:53;;;;;;;5.28;3.47;;;;;;;;;;2023963;29;20390;-90
2023/06/02 05:27:53;;;;;;;4.88;4.07;;;;;;;;;;1673330;29;10386477;-91
2023/06/02 05:28:54;;;;;;;5.65;3.97;;;;;;;;;;2024229;29;20509;-90
2023/06/02 05:29:55;;;;;;;8.43;4.03;;;;;;;;;;2024385;29;20032;-90
2023/06/02 05:30:56;;;;;;;6.00;4.10;;;;;;;;;;2032696;29;20024;-91
2023/06/02 05:31:56;;;;;;;8.57;3.75;;;;;;;;;;2023962;29;20035;-90
2023/06/02 05:32:57;;;;;;;4.72;3.88;;;;;;;;;;2016755;29;20029;-90
2023/06/02 05:33:57;;;;;;;6.57;3.40;;;;;;;;;;2024147;29;20111;-91
2023/06/02 05:35:00;;;;;;;7.20;3.35;;;;;;;;;;2032504;29;20024;-91
2023/06/02 05:36:00;;;;;;;5.55;3.58;;;;;;;;;;2032262;29;20157;-91
2023/06/02 05:37:02;;;;;;;4.65;3.83;;;;;;;;;;1683350;29;10261881;-90
2023/06/02 05:38:04;;;;;;;7.05;3.80;;;;;;;;;;2028851;29;20096;-89
2023/06/02 05:39:05;;;;;;;5.93;4.00;;;;;;;;;;2031636;29;20143;-90
2023/06/02 05:40:05;;;;;;;7.53;3.60;;;;;;;;;;2018203;29;20486;-90
2023/06/02 05:41:06;;;;;;;7.32;4.32;;;;;;;;;;2015234;29;20040;-91
2023/06/02 05:42:06;;;;;;;5.72;3.70;;;;;;;;;;2015727;29;20037;-90
2023/06/02 05:43:07;;;;;;;5.18;3.55;;;;;;;;;;2015989;29;20029;-91
2023/06/02 05:44:07;;;;;;;4.40;3.55;;;;;;;;;;2023792;29;20397;-91
2023/06/02 05:45:08;;;;;;;9.00;4.10;;;;;;;;;;2031974;29;20070;-90
2023/06/02 05:46:08;;;;;;;4.78;3.38;;;;;;;;;;2023607;29;20040;-90
2023/06/02 05:47:10;;;;;;;6.05;4.13;;;;;;;;;;2023616;29;20040;-89
2023/06/02 05:48:10;;;;;;;5.68;3.80;;;;;;;;;;2032112;29;20032;-89
2023/06/02 05:49:10;;;;;;;5.03;3.75;;;;;;;;;;2023617;29;20032;-89
2023/06/02 05:50:11;;;;;;;4.93;3.58;;;;;;;;;;2015588;29;20120;-89
2023/06/02 05:51:11;;;;;;;5.70;3.78;;;;;;;;;;2016192;29;20033;-89
2023/06/02 05:52:12;;;;;;;5.80;4.05;;;;;;;;;;2016189;29;20039;-89
2023/06/02 05:53:13;;;;;;;5.72;3.80;;;;;;;;;;2023913;29;20159;-89
2023/06/02 05:54:14;;;;;;;3.75;3.38;;;;;;;;;;2031793;29;20114;-90
2023/06/02 05:55:14;;;;;;;5.32;3.85;;;;;;;;;;2030869;29;20024;-90
2023/06/02 05:56:16;;;;;;;4.85;3.75;;;;;;;;;;2015617;29;20033;-91
2023/06/02 05:57:18;;;;;;;5.00;3.50;;;;;;;;;;1728914;29;10356619;-92
2023/06/02 05:58:19;;;;;;;5.57;4.03;;;;;;;;;;2023906;29;20246;-89
2023/06/02 05:59:20;;;;;;;7.22;4.18;;;;;;;;;;2015472;29;20037;-90
2023/06/02 06:00:21;;;;;;;5.05;4.05;;;;;;;;;;2015500;29;20044;-91
2023/06/02 06:01:21;;;;;;;5.32;3.72;;;;;;;;;;2015781;29;20502;-91
2023/06/02 06:02:22;;;;;;;5.95;3.80;;;;;;;;;;2020012;29;20037;-90
2023/06/02 06:03:23;;;;;;;4.65;3.60;;;;;;;;;;2031267;29;20128;-89
2023/06/02 06:04:23;;;;;;;7.20;3.67;;;;;;;;;;2023665;29;20056;-90
2023/06/02 06:05:26;;;;;;;5.60;3.50;;;;;;;;;;2024212;29;20547;-90
2023/06/02 06:06:27;;;;;;;4.80;3.58;;;;;;;;;;2024057;29;20092;-90